Hayward, Wisconsin
Current Conditions -  °F | °C
As of 6:53 AM on Thursday 27 Nov 2014 (Local Time) from KHYR Reporting Station
Clear Clear  
Wind Chill: -5°   Ceiling: Unl
Heat Index: -5°   Visibility: 10mi
Dew Point: -10°   Wind: 0mph
Humidity: 80%   Direction: NA
Pressure: 30.41"   Gusts: NA
Location:  46.01°N, 91.48°W
Report Text: KHYR 271253Z AUTO 00000KT 10SM CLR M21/M23 A3041 RMK AO2 SLP331 T12061233
Loading
Personal Weather Stations






























Interactive Weather Map New forecast layout! Learn more

10-Day Weather Forecast

Advertisements
Track Severe Weather on mobile